createdAt,value
2018-12-14T00:00:57.729Z,0
2018-12-14T00:02:09.841Z,0
2018-12-14T00:03:22.143Z,0
2018-12-14T00:04:34.228Z,0
2018-12-14T00:05:46.433Z,0
2018-12-14T00:06:58.777Z,0
2018-12-14T00:08:10.887Z,0
2018-12-14T00:09:22.997Z,0
2018-12-14T00:10:35.284Z,0
2018-12-14T00:11:47.375Z,0
2018-12-14T00:12:59.694Z,0
2018-12-14T00:14:11.901Z,0
2018-12-14T00:15:24.066Z,0
2018-12-14T00:16:36.129Z,0
2018-12-14T00:17:48.363Z,0
2018-12-14T00:19:00.604Z,0
2018-12-14T00:20:12.783Z,0
2018-12-14T00:21:24.908Z,0
2018-12-14T00:22:37.257Z,0
2018-12-14T00:23:49.353Z,0
2018-12-14T00:25:01.544Z,0
2018-12-14T00:26:13.792Z,0
2018-12-14T00:27:25.891Z,0
2018-12-14T00:28:38.138Z,0
2018-12-14T00:29:50.309Z,0
2018-12-14T00:31:02.499Z,0
2018-12-14T00:32:14.774Z,0
2018-12-14T00:33:26.934Z,0
2018-12-14T00:34:39.373Z,0
2018-12-14T00:35:51.283Z,0
2018-12-14T00:37:03.562Z,0
2018-12-14T00:38:15.736Z,0
2018-12-14T00:39:27.946Z,0
2018-12-14T00:40:40.041Z,0
2018-12-14T00:41:52.226Z,0
2018-12-14T00:43:04.347Z,0
2018-12-14T00:44:16.679Z,0
2018-12-14T00:45:28.740Z,0
2018-12-14T00:46:41.105Z,0
2018-12-14T00:47:53.195Z,0
2018-12-14T00:49:05.476Z,0
2018-12-14T00:50:17.678Z,0
2018-12-14T00:51:29.772Z,0
2018-12-14T00:52:41.985Z,0
2018-12-14T00:53:54.195Z,0
2018-12-14T00:55:06.290Z,0
2018-12-14T00:56:20.021Z,0
2018-12-14T00:57:30.772Z,0
2018-12-14T00:58:42.872Z,0
2018-12-14T00:59:55.134Z,0
2018-12-14T01:01:07.424Z,0
2018-12-14T01:02:19.554Z,0
2018-12-14T01:03:31.734Z,0
2018-12-14T01:04:43.940Z,0
2018-12-14T01:05:56.368Z,0
2018-12-14T01:07:08.398Z,0
2018-12-14T01:08:20.587Z,0
2018-12-14T01:09:32.693Z,0
2018-12-14T01:10:44.879Z,0
2018-12-14T01:11:57.116Z,0
2018-12-14T01:13:09.378Z,0
2018-12-14T01:14:21.485Z,0
2018-12-14T01:15:33.681Z,0
2018-12-14T01:16:45.848Z,0
2018-12-14T01:17:58.162Z,0
2018-12-14T01:19:10.339Z,0
2018-12-14T01:20:22.440Z,0
2018-12-14T01:21:34.639Z,0
2018-12-14T01:22:46.850Z,0
2018-12-14T01:23:58.941Z,0
2018-12-14T01:25:11.271Z,0
2018-12-14T01:26:23.495Z,0
2018-12-14T01:27:35.590Z,0
2018-12-14T01:28:47.793Z,0
2018-12-14T01:31:12.202Z,0
2018-12-14T01:32:24.469Z,0
2018-12-14T01:33:36.574Z,0
2018-12-14T01:34:48.789Z,0
2018-12-14T01:36:00.904Z,0
2018-12-14T01:37:13.177Z,0
2018-12-14T01:38:25.456Z,0
2018-12-14T01:39:37.631Z,0
2018-12-14T01:40:49.740Z,0
2018-12-14T01:42:01.974Z,0
2018-12-14T01:43:14.117Z,0
2018-12-14T01:44:26.402Z,0
2018-12-14T01:45:38.503Z,0
2018-12-14T01:46:50.707Z,0
2018-12-14T01:48:02.929Z,0
2018-12-14T01:49:15.021Z,0
2018-12-14T01:50:27.414Z,0
2018-12-14T01:51:39.587Z,0
2018-12-14T01:52:51.678Z,0
2018-12-14T01:54:06.521Z,0
2018-12-14T01:55:16.057Z,0
2018-12-14T01:56:28.257Z,0
2018-12-14T01:57:40.370Z,0
2018-12-14T01:58:52.741Z,0
2018-12-14T02:00:04.836Z,0
2018-12-14T02:01:17.161Z,0
2018-12-14T02:02:29.331Z,0
2018-12-14T02:03:41.420Z,0
2018-12-14T02:04:53.535Z,0
2018-12-14T02:06:05.912Z,0
2018-12-14T02:07:17.927Z,0
2018-12-14T02:08:30.190Z,0
2018-12-14T02:09:42.415Z,0
2018-12-14T02:10:54.691Z,0
2018-12-14T02:12:06.812Z,0
2018-12-14T02:13:19.073Z,0
2018-12-14T02:14:31.193Z,0
2018-12-14T02:15:43.388Z,0
2018-12-14T02:16:55.559Z,0
2018-12-14T02:18:07.850Z,0
2018-12-14T02:19:19.932Z,0
2018-12-14T02:20:32.163Z,0
2018-12-14T02:21:44.581Z,0
2018-12-14T02:22:56.534Z,0
2018-12-14T02:24:08.713Z,0
2018-12-14T02:25:21.002Z,0
2018-12-14T02:26:33.192Z,0
2018-12-14T02:27:45.313Z,0
2018-12-14T02:28:57.490Z,0
2018-12-14T02:30:09.697Z,0
2018-12-14T02:31:21.815Z,0
2018-12-14T02:32:34.119Z,0
2018-12-14T02:33:46.277Z,0
2018-12-14T02:34:58.575Z,0
2018-12-14T02:36:10.759Z,0
2018-12-14T02:37:23.036Z,0
2018-12-14T02:38:35.162Z,0
2018-12-14T02:39:47.178Z,0
2018-12-14T02:40:59.439Z,0
2018-12-14T02:42:11.783Z,0
2018-12-14T02:43:23.743Z,0
2018-12-14T02:44:36.046Z,0
2018-12-14T02:45:48.237Z,0
2018-12-14T02:47:01.157Z,0
2018-12-14T02:48:12.518Z,0
2018-12-14T02:49:24.769Z,0
2018-12-14T02:50:37.162Z,0
2018-12-14T02:51:49.181Z,0
2018-12-14T02:53:01.369Z,0
2018-12-14T02:54:13.625Z,0
2018-12-14T02:55:25.802Z,0
2018-12-14T02:56:38.050Z,0
2018-12-14T02:57:50.166Z,0
2018-12-14T02:59:02.441Z,0
2018-12-14T03:00:14.549Z,0
2018-12-14T03:01:26.829Z,0
2018-12-14T03:02:38.954Z,0
2018-12-14T03:03:51.213Z,0
2018-12-14T03:05:03.321Z,0
2018-12-14T03:06:15.604Z,0
2018-12-14T03:07:27.748Z,0
2018-12-14T03:08:39.901Z,0
2018-12-14T03:09:52.095Z,0
2018-12-14T03:11:04.381Z,0
2018-12-14T03:12:16.467Z,0
2018-12-14T03:13:28.766Z,0
2018-12-14T03:14:40.911Z,0
2018-12-14T03:15:53.137Z,0
2018-12-14T03:17:05.356Z,0
2018-12-14T03:18:17.554Z,0
2018-12-14T03:19:29.632Z,0
2018-12-14T03:20:41.796Z,0
2018-12-14T03:21:54.038Z,0
2018-12-14T03:23:06.257Z,0
2018-12-14T03:24:18.434Z,0
2018-12-14T03:25:30.706Z,0
2018-12-14T03:26:42.911Z,0
2018-12-14T03:27:55.044Z,0
2018-12-14T03:29:07.213Z,0
2018-12-14T03:30:19.488Z,0
2018-12-14T03:31:31.608Z,0
2018-12-14T03:32:43.800Z,0
2018-12-14T03:33:55.995Z,0
2018-12-14T03:35:08.274Z,0
2018-12-14T03:36:20.282Z,0
2018-12-14T03:37:32.568Z,0
2018-12-14T03:38:44.875Z,0
2018-12-14T03:39:56.960Z,0
2018-12-14T03:41:09.132Z,0
2018-12-14T03:42:21.367Z,0
2018-12-14T03:43:33.544Z,0
2018-12-14T03:44:45.755Z,0
2018-12-14T03:45:57.904Z,0
2018-12-14T03:47:10.182Z,0
2018-12-14T03:48:22.233Z,0
2018-12-14T03:49:34.580Z,0
2018-12-14T03:50:46.705Z,0
2018-12-14T03:51:58.899Z,0
2018-12-14T03:53:11.070Z,0
2018-12-14T03:54:23.306Z,0
2018-12-14T03:55:35.561Z,0
2018-12-14T03:56:47.671Z,0
2018-12-14T03:58:01.343Z,0
2018-12-14T03:59:12.150Z,0
2018-12-14T04:00:24.239Z,0
2018-12-14T04:01:36.520Z,0
2018-12-14T04:02:48.713Z,0
2018-12-14T04:04:00.918Z,0
2018-12-14T04:05:12.939Z,0
2018-12-14T04:06:25.305Z,0
2018-12-14T04:07:37.512Z,0
2018-12-14T04:08:49.614Z,0
2018-12-14T04:10:01.716Z,0
2018-12-14T04:11:14.106Z,0
2018-12-14T04:12:26.104Z,0
2018-12-14T04:13:38.469Z,0
2018-12-14T04:14:50.684Z,0
2018-12-14T04:16:02.854Z,0
2018-12-14T04:17:15.010Z,0
2018-12-14T04:18:27.235Z,0
2018-12-14T04:19:39.348Z,0
2018-12-14T04:20:51.674Z,0
2018-12-14T04:22:03.748Z,0
2018-12-14T04:23:16.090Z,0
2018-12-14T04:24:28.124Z,0
2018-12-14T04:25:40.413Z,0
2018-12-14T04:26:52.530Z,0
2018-12-14T04:28:04.813Z,0
2018-12-14T04:29:16.817Z,0
2018-12-14T04:30:29.196Z,0
2018-12-14T04:31:41.444Z,0
2018-12-14T04:32:53.502Z,0
2018-12-14T04:34:05.595Z,0
2018-12-14T04:35:17.934Z,0
2018-12-14T04:36:30.064Z,0
2018-12-14T04:37:42.357Z,0
2018-12-14T04:38:54.537Z,0
2018-12-14T04:40:06.725Z,0
2018-12-14T04:41:18.896Z,0
2018-12-14T04:42:31.100Z,0
2018-12-14T04:43:43.283Z,0
2018-12-14T04:44:55.437Z,0
2018-12-14T04:46:07.617Z,0
2018-12-14T04:47:19.860Z,0
2018-12-14T04:48:35.068Z,0
2018-12-14T04:49:44.185Z,0
2018-12-14T04:50:56.488Z,0
2018-12-14T04:52:08.691Z,0
2018-12-14T04:53:20.787Z,0
2018-12-14T04:54:32.981Z,0
2018-12-14T04:55:45.159Z,0
2018-12-14T04:56:57.280Z,0
2018-12-14T04:58:09.485Z,0
2018-12-14T04:59:21.877Z,0
2018-12-14T05:00:33.945Z,0
2018-12-14T05:01:46.228Z,0
2018-12-14T05:02:58.424Z,0
2018-12-14T05:04:10.518Z,0
2018-12-14T05:05:22.641Z,0
2018-12-14T05:06:35.019Z,0
2018-12-14T05:07:47.031Z,0
2018-12-14T05:08:59.429Z,0
2018-12-14T05:10:11.414Z,0
2018-12-14T05:11:23.768Z,0
2018-12-14T05:12:35.897Z,0
2018-12-14T05:13:48.086Z,0
2018-12-14T05:15:00.280Z,0
2018-12-14T05:16:12.522Z,0
2018-12-14T05:17:24.587Z,0
2018-12-14T05:18:36.886Z,0
2018-12-14T05:19:49.132Z,0
2018-12-14T05:21:01.266Z,0
2018-12-14T05:22:13.438Z,0
2018-12-14T05:23:25.796Z,0
2018-12-14T05:24:37.829Z,0
2018-12-14T05:25:50.031Z,0
2018-12-14T05:27:02.304Z,0
2018-12-14T05:28:14.454Z,0
2018-12-14T05:29:26.527Z,0
2018-12-14T05:30:38.970Z,0
2018-12-14T05:31:51.079Z,0
2018-12-14T05:33:03.176Z,0
2018-12-14T05:34:15.370Z,0
2018-12-14T05:35:27.583Z,0
2018-12-14T05:36:39.685Z,0
2018-12-14T05:37:52.056Z,0
2018-12-14T05:39:04.717Z,0
2018-12-14T05:40:16.457Z,0
2018-12-14T05:41:28.466Z,0
2018-12-14T05:42:40.850Z,0
2018-12-14T05:43:52.933Z,0
2018-12-14T05:45:05.208Z,0
2018-12-14T05:46:17.237Z,0
2018-12-14T05:47:29.520Z,0
2018-12-14T05:48:41.624Z,0
2018-12-14T05:49:53.969Z,0
2018-12-14T05:51:06.173Z,0
2018-12-14T05:52:18.301Z,0
2018-12-14T05:53:30.403Z,0
2018-12-14T05:54:42.750Z,0
2018-12-14T05:55:54.785Z,0
2018-12-14T05:57:07.146Z,0
2018-12-14T05:58:19.243Z,0
2018-12-14T05:59:31.652Z,0
2018-12-14T06:00:43.634Z,0
2018-12-14T06:01:55.897Z,0
2018-12-14T06:03:08.112Z,0
2018-12-14T06:04:20.305Z,0
2018-12-14T06:05:32.344Z,0
2018-12-14T06:06:44.706Z,0
2018-12-14T06:07:56.831Z,0
2018-12-14T06:09:09.071Z,0
2018-12-14T06:10:21.123Z,0
2018-12-14T06:11:33.446Z,0
2018-12-14T06:12:45.616Z,0
2018-12-14T06:13:57.871Z,0
2018-12-14T06:15:10.053Z,0
2018-12-14T06:16:22.179Z,0
2018-12-14T06:17:34.283Z,0
2018-12-14T06:18:46.631Z,0
2018-12-14T06:19:58.758Z,0
2018-12-14T06:21:10.944Z,0
2018-12-14T06:22:23.135Z,0
2018-12-14T06:23:35.273Z,0
2018-12-14T06:24:47.441Z,0
2018-12-14T06:25:59.767Z,0
2018-12-14T06:27:12.036Z,0
2018-12-14T06:28:24.030Z,0
2018-12-14T06:29:36.297Z,0
2018-12-14T06:30:48.565Z,0
2018-12-14T06:32:00.672Z,0
2018-12-14T06:33:12.869Z,0
2018-12-14T06:34:25.013Z,0
2018-12-14T06:35:37.374Z,0
2018-12-14T06:36:49.463Z,0
2018-12-14T06:38:01.661Z,0
2018-12-14T06:39:13.904Z,0
2018-12-14T06:40:26.120Z,0
2018-12-14T06:41:38.264Z,0
2018-12-14T06:42:50.574Z,0
2018-12-14T06:44:02.552Z,0
2018-12-14T06:45:14.816Z,0
2018-12-14T06:46:27.085Z,0
2018-12-14T06:47:39.215Z,0
2018-12-14T06:48:51.408Z,0
2018-12-14T06:50:03.685Z,0
2018-12-14T06:51:15.917Z,0
2018-12-14T06:52:28.069Z,0
2018-12-14T06:53:40.114Z,0
2018-12-14T06:54:52.467Z,0
2018-12-14T06:56:04.576Z,0
2018-12-14T06:57:20.531Z,0
2018-12-14T06:58:29.403Z,0
2018-12-14T06:59:41.382Z,0
2018-12-14T07:00:53.346Z,0
2018-12-14T07:02:05.546Z,0
2018-12-14T07:03:17.813Z,0
2018-12-14T07:04:29.952Z,0
2018-12-14T07:05:42.120Z,0
2018-12-14T07:06:54.346Z,0
2018-12-14T07:08:06.508Z,0
2018-12-14T07:09:18.783Z,0
2018-12-14T07:10:30.890Z,0
2018-12-14T07:11:43.177Z,0
2018-12-14T07:12:55.276Z,0
2018-12-14T07:14:07.604Z,0
2018-12-14T07:15:19.694Z,0
2018-12-14T07:16:31.889Z,0
2018-12-14T07:17:43.989Z,0
2018-12-14T07:18:56.355Z,0
2018-12-14T07:20:08.379Z,0
2018-12-14T07:21:20.592Z,0
2018-12-14T07:22:32.784Z,0
2018-12-14T07:23:45.109Z,0
2018-12-14T07:24:57.240Z,0
2018-12-14T07:26:09.424Z,0
2018-12-14T07:27:21.712Z,0
2018-12-14T07:28:33.755Z,0
2018-12-14T07:29:46.123Z,0
2018-12-14T07:30:58.239Z,0
2018-12-14T07:32:10.442Z,0
2018-12-14T07:33:22.699Z,0
2018-12-14T07:34:34.800Z,0
2018-12-14T07:35:46.932Z,0
2018-12-14T07:36:59.143Z,0
2018-12-14T07:38:11.413Z,0
2018-12-14T07:39:23.711Z,0
2018-12-14T07:40:35.864Z,0
2018-12-14T07:41:47.972Z,0
2018-12-14T07:43:00.263Z,0
2018-12-14T07:44:12.433Z,0
2018-12-14T07:45:24.663Z,0
2018-12-14T07:46:36.681Z,0
2018-12-14T07:47:48.982Z,0
2018-12-14T07:49:01.107Z,0
2018-12-14T07:50:13.346Z,0
2018-12-14T07:51:25.742Z,0
2018-12-14T07:52:37.759Z,0
2018-12-14T07:53:49.967Z,0
2018-12-14T07:55:02.230Z,5
2018-12-14T07:56:14.250Z,5
2018-12-14T07:57:26.606Z,5
2018-12-14T07:58:38.688Z,5
2018-12-14T07:59:50.999Z,5
2018-12-14T08:01:03.103Z,5
2018-12-14T08:02:15.328Z,5
2018-12-14T08:03:27.582Z,5
2018-12-14T08:04:39.699Z,5
2018-12-14T08:05:51.883Z,5
2018-12-14T08:07:04.102Z,5
2018-12-14T08:08:16.294Z,5
2018-12-14T08:09:28.502Z,5
2018-12-14T08:10:40.807Z,5
2018-12-14T08:11:52.941Z,5
2018-12-14T08:13:05.029Z,5
2018-12-14T08:14:17.278Z,5
2018-12-14T08:15:29.462Z,5
2018-12-14T08:16:41.826Z,5
2018-12-14T08:17:53.843Z,11
2018-12-14T08:19:06.049Z,11
2018-12-14T08:20:18.299Z,11
2018-12-14T08:21:30.557Z,11
2018-12-14T08:22:42.592Z,11
2018-12-14T08:23:54.858Z,11
2018-12-14T08:25:06.944Z,11
2018-12-14T08:26:19.202Z,11
2018-12-14T08:27:31.448Z,11
2018-12-14T08:28:43.762Z,11
2018-12-14T08:29:55.883Z,11
2018-12-14T08:31:08.100Z,11
2018-12-14T08:32:20.124Z,11
2018-12-14T08:33:32.329Z,11
2018-12-14T08:34:44.609Z,11
2018-12-14T08:35:56.819Z,11
2018-12-14T08:37:08.973Z,11
2018-12-14T08:38:21.267Z,11
2018-12-14T08:39:33.390Z,16
2018-12-14T08:40:45.478Z,16
2018-12-14T08:41:57.766Z,16
2018-12-14T08:43:10.013Z,16
2018-12-14T08:44:22.175Z,16
2018-12-14T08:45:34.665Z,11
2018-12-14T08:46:46.546Z,11
2018-12-14T08:47:58.728Z,11
2018-12-14T08:49:10.858Z,11
2018-12-14T08:50:23.211Z,16
2018-12-14T08:51:35.421Z,16
2018-12-14T08:52:47.600Z,16
2018-12-14T08:53:59.792Z,16
2018-12-14T08:55:11.871Z,16
2018-12-14T08:56:24.193Z,16
2018-12-14T08:57:36.302Z,16
2018-12-14T08:58:48.427Z,16
2018-12-14T09:00:00.744Z,16
2018-12-14T09:01:12.821Z,16
2018-12-14T09:02:25.099Z,16
2018-12-14T09:03:37.279Z,22
2018-12-14T09:04:49.568Z,22
2018-12-14T09:06:01.742Z,22
2018-12-14T09:07:13.904Z,22
2018-12-14T09:08:26.193Z,22
2018-12-14T09:09:38.337Z,22
2018-12-14T09:10:50.442Z,22
2018-12-14T09:12:02.629Z,22
2018-12-14T09:13:14.853Z,28
2018-12-14T09:14:27.110Z,28
2018-12-14T09:15:39.328Z,28
2018-12-14T09:16:51.428Z,28
2018-12-14T09:18:03.613Z,28
2018-12-14T09:19:15.874Z,28
2018-12-14T09:20:27.940Z,28
2018-12-14T09:21:40.304Z,28
2018-12-14T09:22:52.404Z,28
2018-12-14T09:24:04.695Z,33
2018-12-14T09:25:16.810Z,33
2018-12-14T09:26:29.001Z,33
2018-12-14T09:27:41.287Z,33
2018-12-14T09:28:53.507Z,33
2018-12-14T09:30:05.573Z,33
2018-12-14T09:31:17.809Z,33
2018-12-14T09:32:29.964Z,33
2018-12-14T09:33:42.254Z,33
2018-12-14T09:34:54.356Z,33
2018-12-14T09:36:06.550Z,33
2018-12-14T09:37:18.678Z,33
2018-12-14T09:38:31.039Z,33
2018-12-14T09:39:43.396Z,33
2018-12-14T09:40:55.414Z,33
2018-12-14T09:42:07.539Z,33
2018-12-14T09:43:20.588Z,33
2018-12-14T09:44:31.842Z,33
2018-12-14T09:45:44.123Z,33
2018-12-14T09:46:56.494Z,39
2018-12-14T09:48:08.541Z,39
2018-12-14T09:49:20.626Z,39
2018-12-14T09:50:32.994Z,39
2018-12-14T09:51:47.182Z,39
2018-12-14T09:52:57.688Z,39
2018-12-14T09:54:09.490Z,39
2018-12-14T09:55:21.695Z,39
2018-12-14T09:56:33.878Z,39
2018-12-14T09:57:46.093Z,39
2018-12-14T09:58:58.256Z,45
2018-12-14T10:00:10.419Z,45
2018-12-14T10:01:22.588Z,45
2018-12-14T10:02:34.863Z,45
2018-12-14T10:03:47.145Z,45
2018-12-14T10:04:59.254Z,45
2018-12-14T10:06:11.442Z,45
2018-12-14T10:07:23.719Z,45
2018-12-14T10:08:35.832Z,45
2018-12-14T10:09:48.167Z,45
2018-12-14T10:11:00.213Z,39
2018-12-14T10:12:12.510Z,45
2018-12-14T10:13:24.628Z,45
2018-12-14T10:14:36.909Z,45
2018-12-14T10:15:49.081Z,45
2018-12-14T10:17:01.309Z,50
2018-12-14T10:18:13.407Z,50
2018-12-14T10:19:25.725Z,56
2018-12-14T10:20:37.799Z,56
2018-12-14T10:21:50.111Z,50
2018-12-14T10:23:02.113Z,50
2018-12-14T10:24:14.454Z,50
2018-12-14T10:25:26.498Z,50
2018-12-14T10:26:38.859Z,56
2018-12-14T10:27:51.052Z,61
2018-12-14T10:29:03.083Z,61
2018-12-14T10:30:15.360Z,67
2018-12-14T10:31:27.559Z,73
2018-12-14T10:32:39.739Z,73
2018-12-14T10:33:51.966Z,73
2018-12-14T10:35:04.056Z,73
2018-12-14T10:36:16.453Z,73
2018-12-14T10:37:28.445Z,73
2018-12-14T10:38:40.793Z,78
2018-12-14T10:39:53.016Z,78
2018-12-14T10:41:05.104Z,78
2018-12-14T10:42:17.234Z,84
2018-12-14T10:43:29.490Z,84
2018-12-14T10:44:41.780Z,84
2018-12-14T10:45:53.944Z,90
2018-12-14T10:47:06.102Z,95
2018-12-14T10:48:18.218Z,95
2018-12-14T10:49:30.445Z,95
2018-12-14T10:50:42.696Z,90
2018-12-14T10:51:54.890Z,95
2018-12-14T10:53:07.161Z,95
2018-12-14T10:54:19.251Z,95
2018-12-14T10:55:31.559Z,95
2018-12-14T10:56:43.713Z,101
2018-12-14T10:57:55.965Z,95
2018-12-14T10:59:08.060Z,90
2018-12-14T11:00:20.467Z,84
2018-12-14T11:01:32.469Z,73
2018-12-14T11:02:44.759Z,67
2018-12-14T11:03:56.933Z,67
2018-12-14T11:05:09.120Z,67
2018-12-14T11:06:21.241Z,67
2018-12-14T11:07:33.481Z,73
2018-12-14T11:08:45.705Z,78
2018-12-14T11:09:59.794Z,84
2018-12-14T11:11:09.991Z,90
2018-12-14T11:12:22.213Z,95
2018-12-14T11:13:34.391Z,95
2018-12-14T11:14:46.510Z,95
2018-12-14T11:15:58.889Z,101
2018-12-14T11:17:11.098Z,95
2018-12-14T11:18:23.196Z,95
2018-12-14T11:19:35.368Z,95
2018-12-14T11:20:47.574Z,95
2018-12-14T11:21:59.773Z,95
2018-12-14T11:23:15.366Z,95
2018-12-14T11:24:24.076Z,95
2018-12-14T11:25:36.281Z,95
2018-12-14T11:26:48.659Z,95
2018-12-14T11:28:00.831Z,95
2018-12-14T11:29:13.044Z,90
2018-12-14T11:30:25.125Z,90
2018-12-14T11:31:37.319Z,90
2018-12-14T11:32:49.510Z,90
2018-12-14T11:34:01.728Z,90
2018-12-14T11:35:13.835Z,84
2018-12-14T11:36:26.130Z,84
2018-12-14T11:37:38.232Z,84
2018-12-14T11:38:50.505Z,84
2018-12-14T11:40:02.841Z,84
2018-12-14T11:41:14.985Z,84
2018-12-14T11:42:27.022Z,78
2018-12-14T11:43:39.206Z,78
2018-12-14T11:44:51.475Z,78
2018-12-14T11:46:03.761Z,78
2018-12-14T11:47:15.830Z,78
2018-12-14T11:48:28.159Z,78
2018-12-14T11:49:40.379Z,78
2018-12-14T11:50:52.478Z,78
2018-12-14T11:52:04.677Z,78
2018-12-14T11:53:16.789Z,78
2018-12-14T11:54:29.047Z,78
2018-12-14T11:55:41.346Z,78
2018-12-14T11:56:53.441Z,73
2018-12-14T11:58:05.711Z,73
2018-12-14T11:59:17.817Z,67
2018-12-14T12:00:30.120Z,67
2018-12-14T12:01:42.237Z,67
2018-12-14T12:02:54.405Z,67
2018-12-14T12:04:06.885Z,67
2018-12-14T12:05:18.920Z,61
2018-12-14T12:06:30.920Z,61
2018-12-14T12:07:43.288Z,61
2018-12-14T12:08:55.310Z,61
2018-12-14T12:10:07.514Z,61
2018-12-14T12:11:19.778Z,61
2018-12-14T12:12:31.989Z,56
2018-12-14T12:13:44.096Z,56
2018-12-14T12:14:56.361Z,56
2018-12-14T12:16:08.658Z,56
2018-12-14T12:17:20.759Z,56
2018-12-14T12:18:32.882Z,56
2018-12-14T12:19:45.211Z,50
2018-12-14T12:20:57.303Z,56
2018-12-14T12:22:09.486Z,56
2018-12-14T12:23:21.661Z,56
2018-12-14T12:24:33.943Z,56
2018-12-14T12:25:46.147Z,56
2018-12-14T12:26:58.321Z,56
2018-12-14T12:28:10.680Z,56
2018-12-14T12:29:22.715Z,56
2018-12-14T12:30:34.967Z,56
2018-12-14T12:31:47.035Z,56
2018-12-14T12:32:59.263Z,56
2018-12-14T12:34:11.516Z,56
2018-12-14T12:35:23.652Z,56
2018-12-14T12:36:35.881Z,56
2018-12-14T12:37:48.098Z,56
2018-12-14T12:39:00.301Z,50
2018-12-14T12:40:12.572Z,50
2018-12-14T12:41:24.679Z,50
2018-12-14T12:42:36.986Z,50
2018-12-14T12:43:49.058Z,50
2018-12-14T12:45:01.273Z,50
2018-12-14T12:46:13.472Z,56
2018-12-14T12:47:25.761Z,56
2018-12-14T12:48:37.779Z,56
2018-12-14T12:49:49.964Z,56
2018-12-14T12:51:02.213Z,50
2018-12-14T12:52:14.546Z,50
2018-12-14T12:53:26.666Z,50
2018-12-14T12:54:38.827Z,50
2018-12-14T12:55:51.011Z,50
2018-12-14T12:57:03.209Z,50
2018-12-14T12:58:15.423Z,50
2018-12-14T12:59:27.532Z,50
2018-12-14T13:00:39.857Z,50
2018-12-14T13:01:51.999Z,50
2018-12-14T13:03:04.117Z,45
2018-12-14T13:04:16.490Z,45
2018-12-14T13:05:28.640Z,45
2018-12-14T13:06:40.724Z,45
2018-12-14T13:07:52.966Z,45
2018-12-14T13:09:05.275Z,45
2018-12-14T13:10:17.389Z,45
2018-12-14T13:11:30.165Z,45
2018-12-14T13:12:41.751Z,45
2018-12-14T13:13:54.009Z,45
2018-12-14T13:15:06.148Z,45
2018-12-14T13:16:18.377Z,39
2018-12-14T13:17:30.542Z,39
2018-12-14T13:18:42.734Z,39
2018-12-14T13:19:54.849Z,39
2018-12-14T13:21:07.180Z,39
2018-12-14T13:22:19.331Z,39
2018-12-14T13:23:31.509Z,39
2018-12-14T13:24:43.731Z,39
2018-12-14T13:25:55.832Z,39
2018-12-14T13:27:08.097Z,33
2018-12-14T13:28:20.412Z,33
2018-12-14T13:29:32.505Z,33
2018-12-14T13:30:44.643Z,33
2018-12-14T13:31:56.918Z,33
2018-12-14T13:33:09.091Z,33
2018-12-14T13:34:21.283Z,28
2018-12-14T13:35:33.412Z,28
2018-12-14T13:36:45.634Z,28
2018-12-14T13:37:57.813Z,28
2018-12-14T13:39:09.994Z,28
2018-12-14T13:40:22.351Z,28
2018-12-14T13:41:34.449Z,28
2018-12-14T13:42:46.586Z,28
2018-12-14T13:43:58.886Z,28
2018-12-14T13:45:11.062Z,22
2018-12-14T13:46:23.256Z,22
2018-12-14T13:47:35.359Z,22
2018-12-14T13:48:47.646Z,22
2018-12-14T13:49:59.793Z,22
2018-12-14T13:51:12.126Z,22
2018-12-14T13:52:24.326Z,22
2018-12-14T13:53:36.346Z,22
2018-12-14T13:54:48.630Z,22
2018-12-14T13:56:00.734Z,16
2018-12-14T13:57:12.970Z,16
2018-12-14T13:58:25.229Z,16
2018-12-14T13:59:37.312Z,16
2018-12-14T14:00:50.813Z,16
2018-12-14T14:02:01.722Z,16
2018-12-14T14:03:14.118Z,22
2018-12-14T14:04:26.276Z,22
2018-12-14T14:05:38.492Z,22
2018-12-14T14:06:50.515Z,16
2018-12-14T14:08:02.854Z,22
2018-12-14T14:09:14.969Z,22
2018-12-14T14:10:27.125Z,22
2018-12-14T14:11:39.363Z,16
2018-12-14T14:12:51.540Z,16
2018-12-14T14:14:03.743Z,16
2018-12-14T14:15:16.043Z,16
2018-12-14T14:16:28.231Z,16
2018-12-14T14:17:40.336Z,16
2018-12-14T14:18:52.532Z,16
2018-12-14T14:20:04.745Z,16
2018-12-14T14:21:17.675Z,16
2018-12-14T14:22:29.130Z,16
2018-12-14T14:23:41.248Z,16
2018-12-14T14:24:53.557Z,16
2018-12-14T14:26:05.642Z,16
2018-12-14T14:27:18.075Z,16
2018-12-14T14:28:30.182Z,11
2018-12-14T14:29:42.392Z,11
2018-12-14T14:30:54.505Z,11
2018-12-14T14:32:06.792Z,11
2018-12-14T14:33:18.879Z,11
2018-12-14T14:34:31.179Z,11
2018-12-14T14:35:43.283Z,11
2018-12-14T14:36:55.464Z,11
2018-12-14T14:38:07.586Z,11
2018-12-14T14:39:19.942Z,11
2018-12-14T14:40:32.079Z,11
2018-12-14T14:41:44.358Z,11
2018-12-14T14:42:58.641Z,11
2018-12-14T14:44:08.651Z,11
2018-12-14T14:45:20.932Z,11
2018-12-14T14:46:33.168Z,11
2018-12-14T14:47:45.146Z,11
2018-12-14T14:48:57.348Z,11
2018-12-14T14:50:09.559Z,5
2018-12-14T14:51:21.920Z,5
2018-12-14T14:52:34.110Z,5
2018-12-14T14:53:46.321Z,5
2018-12-14T14:54:58.419Z,5
2018-12-14T14:56:10.643Z,5
2018-12-14T14:57:22.724Z,5
2018-12-14T14:58:34.993Z,5
2018-12-14T14:59:47.310Z,5
2018-12-14T15:00:59.375Z,5
2018-12-14T15:02:11.663Z,5
2018-12-14T15:03:23.773Z,5
2018-12-14T15:04:36.064Z,5
2018-12-14T15:05:48.259Z,5
2018-12-14T15:07:00.377Z,0
2018-12-14T15:08:12.642Z,0
2018-12-14T15:09:24.785Z,0
2018-12-14T15:10:37.055Z,0
2018-12-14T15:11:49.066Z,0
2018-12-14T15:13:01.328Z,0
2018-12-14T15:14:13.545Z,0
2018-12-14T15:15:25.839Z,0
2018-12-14T15:16:38.008Z,0
2018-12-14T15:17:50.221Z,0
2018-12-14T15:19:02.353Z,0
2018-12-14T15:20:14.504Z,0
2018-12-14T15:21:26.764Z,0
2018-12-14T15:22:38.892Z,0
2018-12-14T15:23:51.092Z,0
2018-12-14T15:25:03.325Z,0
2018-12-14T15:26:15.488Z,0
2018-12-14T15:27:27.603Z,0
2018-12-14T15:28:39.970Z,0
2018-12-14T15:29:52.124Z,0
2018-12-14T15:31:04.298Z,0
2018-12-14T15:32:16.402Z,0
2018-12-14T15:33:28.662Z,0
2018-12-14T15:34:40.872Z,0
2018-12-14T15:35:53.068Z,0
2018-12-14T15:37:05.167Z,0
2018-12-14T15:38:17.435Z,0
2018-12-14T15:39:29.702Z,0
2018-12-14T15:40:41.967Z,0
2018-12-14T15:41:54.132Z,0
2018-12-14T15:43:06.147Z,0
2018-12-14T15:44:18.509Z,0
2018-12-14T15:45:30.561Z,0
2018-12-14T15:46:42.795Z,0
2018-12-14T15:47:55.012Z,0
2018-12-14T15:49:07.272Z,0
2018-12-14T15:50:19.463Z,0
2018-12-14T15:51:35.441Z,0
2018-12-14T15:52:43.993Z,0
2018-12-14T15:53:58.935Z,0
2018-12-14T15:55:08.106Z,0
2018-12-14T15:56:20.354Z,0
2018-12-14T15:57:32.514Z,0
2018-12-14T15:58:44.773Z,0
2018-12-14T15:59:57.005Z,0
2018-12-14T16:01:09.257Z,0
2018-12-14T16:02:21.424Z,0
2018-12-14T16:03:33.553Z,0
2018-12-14T16:04:45.766Z,0
2018-12-14T16:05:57.946Z,0
2018-12-14T16:07:10.177Z,0
2018-12-14T16:08:22.444Z,0
2018-12-14T16:09:34.473Z,0
2018-12-14T16:10:46.713Z,0
2018-12-14T16:11:58.859Z,0
2018-12-14T16:13:11.363Z,0
2018-12-14T16:14:23.320Z,0
2018-12-14T16:15:35.536Z,0
2018-12-14T16:16:47.714Z,0
2018-12-14T16:17:59.833Z,0
2018-12-14T16:19:12.113Z,0
2018-12-14T16:20:24.222Z,0
2018-12-14T16:21:36.495Z,0
2018-12-14T16:22:48.688Z,0
2018-12-14T16:24:00.872Z,0
2018-12-14T16:25:13.006Z,0
2018-12-14T16:26:25.293Z,0
2018-12-14T16:27:37.472Z,0
2018-12-14T16:28:49.672Z,0
2018-12-14T16:30:01.984Z,0
2018-12-14T16:31:14.056Z,0
2018-12-14T16:32:26.275Z,0
2018-12-14T16:33:38.370Z,0
2018-12-14T16:34:50.655Z,0
2018-12-14T16:36:02.840Z,0
2018-12-14T16:37:15.098Z,0
2018-12-14T16:38:27.299Z,0
2018-12-14T16:39:39.521Z,0
2018-12-14T16:40:51.626Z,0
2018-12-14T16:42:03.728Z,0
2018-12-14T16:43:15.918Z,0
2018-12-14T16:44:28.372Z,0
2018-12-14T16:45:40.415Z,0
2018-12-14T16:46:52.608Z,0
2018-12-14T16:48:04.781Z,0
2018-12-14T16:49:17.167Z,0
2018-12-14T16:50:29.153Z,0
2018-12-14T16:51:41.462Z,0
2018-12-14T16:52:53.645Z,0
2018-12-14T16:54:05.833Z,0
2018-12-14T16:55:17.954Z,0
2018-12-14T16:56:30.068Z,0
2018-12-14T16:57:42.408Z,0
2018-12-14T16:58:54.598Z,0
2018-12-14T17:00:06.717Z,0
2018-12-14T17:01:18.900Z,0
2018-12-14T17:02:31.216Z,0
2018-12-14T17:03:43.226Z,0
2018-12-14T17:04:55.688Z,0
2018-12-14T17:06:07.688Z,0
2018-12-14T17:07:19.865Z,0
2018-12-14T17:08:31.999Z,0
2018-12-14T17:09:44.196Z,0
2018-12-14T17:10:56.493Z,0
2018-12-14T17:12:08.660Z,0
2018-12-14T17:13:20.926Z,0
2018-12-14T17:14:32.961Z,0
2018-12-14T17:15:45.221Z,0
2018-12-14T17:16:57.532Z,0
2018-12-14T17:18:09.618Z,0
2018-12-14T17:19:21.818Z,0
2018-12-14T17:20:34.109Z,0
2018-12-14T17:21:46.137Z,0
2018-12-14T17:22:58.466Z,0
2018-12-14T17:24:10.658Z,0
2018-12-14T17:25:22.709Z,0
2018-12-14T17:26:34.983Z,0
2018-12-14T17:27:47.256Z,0
2018-12-14T17:28:59.470Z,0
2018-12-14T17:30:11.497Z,0
2018-12-14T17:31:23.848Z,0
2018-12-14T17:32:35.878Z,0
2018-12-14T17:33:48.149Z,0
2018-12-14T17:35:00.360Z,0